sensor_id;sensor_type;location;lat;lon;timestamp;P1;durP1;ratioP1;P2;durP2;ratioP2
67498;SDS011;54345;42.670;23.218;2022-11-15T00:01:31;59.07;;;28.67;;
67498;SDS011;54345;42.670;23.218;2022-11-15T00:03:57;53.63;;;29.67;;
67498;SDS011;54345;42.670;23.218;2022-11-15T00:06:22;57.60;;;29.80;;
67498;SDS011;54345;42.670;23.218;2022-11-15T00:08:48;58.67;;;28.77;;
67498;SDS011;54345;42.670;23.218;2022-11-15T00:11:13;62.93;;;29.60;;
67498;SDS011;54345;42.670;23.218;2022-11-15T00:13:39;57.00;;;30.13;;
67498;SDS011;54345;42.670;23.218;2022-11-15T00:16:05;57.03;;;29.27;;
67498;SDS011;54345;42.670;23.218;2022-11-15T00:18:31;60.57;;;30.47;;
67498;SDS011;54345;42.670;23.218;2022-11-15T00:21:02;54.73;;;30.07;;
67498;SDS011;54345;42.670;23.218;2022-11-15T00:23:30;56.73;;;30.57;;
67498;SDS011;54345;42.670;23.218;2022-11-15T00:25:59;57.30;;;29.77;;
67498;SDS011;54345;42.670;23.218;2022-11-15T00:28:25;63.73;;;34.33;;
67498;SDS011;54345;42.670;23.218;2022-11-15T00:30:51;66.03;;;35.00;;
67498;SDS011;54345;42.670;23.218;2022-11-15T00:33:16;64.70;;;35.47;;
67498;SDS011;54345;42.670;23.218;2022-11-15T00:35:42;66.97;;;35.60;;
67498;SDS011;54345;42.670;23.218;2022-11-15T00:38:08;69.47;;;34.37;;
67498;SDS011;54345;42.670;23.218;2022-11-15T00:40:34;68.70;;;35.43;;
67498;SDS011;54345;42.670;23.218;2022-11-15T00:42:59;67.90;;;33.50;;
67498;SDS011;54345;42.670;23.218;2022-11-15T00:45:25;55.83;;;32.13;;
67498;SDS011;54345;42.670;23.218;2022-11-15T00:47:51;65.37;;;32.80;;
67498;SDS011;54345;42.670;23.218;2022-11-15T00:50:17;60.40;;;32.60;;
67498;SDS011;54345;42.670;23.218;2022-11-15T00:52:43;65.77;;;30.87;;
67498;SDS011;54345;42.670;23.218;2022-11-15T00:55:15;52.13;;;28.83;;
67498;SDS011;54345;42.670;23.218;2022-11-15T00:57:43;52.40;;;26.70;;
67498;SDS011;54345;42.670;23.218;2022-11-15T01:00:09;51.90;;;24.37;;
67498;SDS011;54345;42.670;23.218;2022-11-15T01:02:35;50.23;;;24.80;;
67498;SDS011;54345;42.670;23.218;2022-11-15T01:05:01;53.03;;;28.40;;
67498;SDS011;54345;42.670;23.218;2022-11-15T01:07:26;81.23;;;56.47;;
67498;SDS011;54345;42.670;23.218;2022-11-15T01:09:52;66.67;;;35.97;;
67498;SDS011;54345;42.670;23.218;2022-11-15T01:12:17;67.57;;;35.60;;
67498;SDS011;54345;42.670;23.218;2022-11-15T01:14:43;57.30;;;32.63;;
67498;SDS011;54345;42.670;23.218;2022-11-15T01:17:08;62.97;;;31.77;;
67498;SDS011;54345;42.670;23.218;2022-11-15T01:19:34;65.57;;;35.33;;
67498;SDS011;54345;42.670;23.218;2022-11-15T01:21:59;59.93;;;29.97;;
67498;SDS011;54345;42.670;23.218;2022-11-15T01:24:25;51.87;;;29.40;;
67498;SDS011;54345;42.670;23.218;2022-11-15T01:26:51;53.57;;;33.87;;
67498;SDS011;54345;42.670;23.218;2022-11-15T01:29:16;52.67;;;31.47;;
67498;SDS011;54345;42.670;23.218;2022-11-15T01:31:42;65.00;;;33.10;;
67498;SDS011;54345;42.670;23.218;2022-11-15T01:34:07;50.20;;;26.17;;
67498;SDS011;54345;42.670;23.218;2022-11-15T01:36:33;62.23;;;30.63;;
67498;SDS011;54345;42.670;23.218;2022-11-15T01:38:59;50.57;;;28.93;;
67498;SDS011;54345;42.670;23.218;2022-11-15T01:41:29;58.47;;;27.90;;
67498;SDS011;54345;42.670;23.218;2022-11-15T01:44:25;59.90;;;30.20;;
67498;SDS011;54345;42.670;23.218;2022-11-15T01:47:02;53.50;;;29.63;;
67498;SDS011;54345;42.670;23.218;2022-11-15T01:49:32;58.03;;;29.77;;
67498;SDS011;54345;42.670;23.218;2022-11-15T01:52:00;57.50;;;28.20;;
67498;SDS011;54345;42.670;23.218;2022-11-15T01:54:28;57.13;;;28.33;;
67498;SDS011;54345;42.670;23.218;2022-11-15T01:56:56;56.47;;;29.23;;
67498;SDS011;54345;42.670;23.218;2022-11-15T01:59:34;54.60;;;29.47;;
67498;SDS011;54345;42.670;23.218;2022-11-15T02:02:02;52.67;;;29.33;;
67498;SDS011;54345;42.670;23.218;2022-11-15T02:04:28;54.57;;;29.20;;
67498;SDS011;54345;42.670;23.218;2022-11-15T02:06:56;62.30;;;30.23;;
67498;SDS011;54345;42.670;23.218;2022-11-15T02:09:22;55.90;;;27.30;;
67498;SDS011;54345;42.670;23.218;2022-11-15T02:11:48;53.57;;;28.67;;
67498;SDS011;54345;42.670;23.218;2022-11-15T02:14:16;52.80;;;29.20;;
67498;SDS011;54345;42.670;23.218;2022-11-15T02:24:57;58.53;;;30.47;;
67498;SDS011;54345;42.670;23.218;2022-11-15T02:32:54;55.87;;;26.67;;
67498;SDS011;54345;42.670;23.218;2022-11-15T02:35:34;53.57;;;27.50;;
67498;SDS011;54345;42.670;23.218;2022-11-15T02:38:25;45.10;;;27.47;;
67498;SDS011;54345;42.670;23.218;2022-11-15T02:41:01;54.53;;;28.13;;
67498;SDS011;54345;42.670;23.218;2022-11-15T02:43:36;51.60;;;28.10;;
67498;SDS011;54345;42.670;23.218;2022-11-15T02:49:13;58.67;;;30.77;;
67498;SDS011;54345;42.670;23.218;2022-11-15T02:51:40;58.17;;;28.33;;
67498;SDS011;54345;42.670;23.218;2022-11-15T02:54:11;53.97;;;28.87;;
67498;SDS011;54345;42.670;23.218;2022-11-15T02:56:40;50.63;;;27.83;;
67498;SDS011;54345;42.670;23.218;2022-11-15T03:04:26;43.83;;;23.50;;
67498;SDS011;54345;42.670;23.218;2022-11-15T03:09:54;41.83;;;21.37;;
67498;SDS011;54345;42.670;23.218;2022-11-15T03:12:30;45.43;;;23.13;;
67498;SDS011;54345;42.670;23.218;2022-11-15T03:17:47;48.90;;;24.97;;
67498;SDS011;54345;42.670;23.218;2022-11-15T03:20:18;50.43;;;24.53;;
67498;SDS011;54345;42.670;23.218;2022-11-15T03:22:45;40.00;;;22.60;;
67498;SDS011;54345;42.670;23.218;2022-11-15T03:25:13;46.03;;;24.70;;
67498;SDS011;54345;42.670;23.218;2022-11-15T03:27:46;57.37;;;27.10;;
67498;SDS011;54345;42.670;23.218;2022-11-15T03:30:15;52.10;;;26.80;;
67498;SDS011;54345;42.670;23.218;2022-11-15T03:32:44;52.93;;;27.37;;
67498;SDS011;54345;42.670;23.218;2022-11-15T03:35:17;56.30;;;25.23;;
67498;SDS011;54345;42.670;23.218;2022-11-15T03:37:48;53.23;;;25.70;;
67498;SDS011;54345;42.670;23.218;2022-11-15T03:40:17;52.50;;;27.80;;
67498;SDS011;54345;42.670;23.218;2022-11-15T03:42:48;60.10;;;28.13;;
67498;SDS011;54345;42.670;23.218;2022-11-15T03:50:28;49.50;;;26.47;;
67498;SDS011;54345;42.670;23.218;2022-11-15T03:52:54;47.63;;;22.73;;
67498;SDS011;54345;42.670;23.218;2022-11-15T03:55:21;51.97;;;23.50;;
67498;SDS011;54345;42.670;23.218;2022-11-15T03:57:49;60.63;;;28.17;;
67498;SDS011;54345;42.670;23.218;2022-11-15T04:00:18;61.00;;;30.23;;
67498;SDS011;54345;42.670;23.218;2022-11-15T04:02:44;64.23;;;31.83;;
67498;SDS011;54345;42.670;23.218;2022-11-15T04:05:10;87.37;;;32.43;;
67498;SDS011;54345;42.670;23.218;2022-11-15T04:07:35;61.60;;;30.63;;
67498;SDS011;54345;42.670;23.218;2022-11-15T04:10:01;63.57;;;31.97;;
67498;SDS011;54345;42.670;23.218;2022-11-15T04:12:28;59.17;;;31.00;;
67498;SDS011;54345;42.670;23.218;2022-11-15T04:15:09;91.33;;;31.03;;
67498;SDS011;54345;42.670;23.218;2022-11-15T04:17:44;58.80;;;29.97;;
67498;SDS011;54345;42.670;23.218;2022-11-15T04:20:12;61.90;;;27.80;;
67498;SDS011;54345;42.670;23.218;2022-11-15T04:22:57;59.83;;;27.53;;
67498;SDS011;54345;42.670;23.218;2022-11-15T04:25:43;66.87;;;27.90;;
67498;SDS011;54345;42.670;23.218;2022-11-15T04:28:10;99.53;;;30.97;;
67498;SDS011;54345;42.670;23.218;2022-11-15T04:30:36;118.67;;;32.23;;
67498;SDS011;54345;42.670;23.218;2022-11-15T04:33:02;114.10;;;32.10;;
67498;SDS011;54345;42.670;23.218;2022-11-15T04:35:28;84.63;;;30.63;;
67498;SDS011;54345;42.670;23.218;2022-11-15T04:37:54;119.50;;;31.40;;
67498;SDS011;54345;42.670;23.218;2022-11-15T04:40:21;71.83;;;28.90;;
67498;SDS011;54345;42.670;23.218;2022-11-15T04:42:46;82.30;;;28.37;;
67498;SDS011;54345;42.670;23.218;2022-11-15T04:45:12;72.63;;;28.13;;
67498;SDS011;54345;42.670;23.218;2022-11-15T04:47:37;102.37;;;27.63;;
67498;SDS011;54345;42.670;23.218;2022-11-15T04:50:03;99.20;;;27.87;;
67498;SDS011;54345;42.670;23.218;2022-11-15T04:52:29;112.60;;;27.77;;
67498;SDS011;54345;42.670;23.218;2022-11-15T04:54:55;124.77;;;29.13;;
67498;SDS011;54345;42.670;23.218;2022-11-15T04:57:20;78.57;;;27.30;;
67498;SDS011;54345;42.670;23.218;2022-11-15T04:59:46;97.47;;;27.23;;
67498;SDS011;54345;42.670;23.218;2022-11-15T05:02:11;85.13;;;28.10;;
67498;SDS011;54345;42.670;23.218;2022-11-15T05:04:37;111.13;;;27.37;;
67498;SDS011;54345;42.670;23.218;2022-11-15T05:07:04;163.93;;;29.60;;
67498;SDS011;54345;42.670;23.218;2022-11-15T05:09:30;111.67;;;28.47;;
67498;SDS011;54345;42.670;23.218;2022-11-15T05:11:55;130.27;;;28.87;;
67498;SDS011;54345;42.670;23.218;2022-11-15T05:14:21;98.20;;;26.67;;
67498;SDS011;54345;42.670;23.218;2022-11-15T05:16:46;173.97;;;31.53;;
67498;SDS011;54345;42.670;23.218;2022-11-15T05:19:12;201.10;;;29.67;;
67498;SDS011;54345;42.670;23.218;2022-11-15T05:21:38;102.43;;;26.77;;
67498;SDS011;54345;42.670;23.218;2022-11-15T05:24:04;159.03;;;30.73;;
67498;SDS011;54345;42.670;23.218;2022-11-15T05:26:30;183.07;;;31.37;;
67498;SDS011;54345;42.670;23.218;2022-11-15T05:28:56;124.50;;;28.80;;
67498;SDS011;54345;42.670;23.218;2022-11-15T05:31:23;137.63;;;31.23;;
67498;SDS011;54345;42.670;23.218;2022-11-15T05:33:50;107.80;;;27.47;;
67498;SDS011;54345;42.670;23.218;2022-11-15T05:36:27;139.77;;;29.17;;
67498;SDS011;54345;42.670;23.218;2022-11-15T05:38:58;155.90;;;29.93;;
67498;SDS011;54345;42.670;23.218;2022-11-15T05:41:29;143.33;;;26.90;;
67498;SDS011;54345;42.670;23.218;2022-11-15T05:43:59;150.60;;;29.73;;
67498;SDS011;54345;42.670;23.218;2022-11-15T05:46:27;102.27;;;25.63;;
67498;SDS011;54345;42.670;23.218;2022-11-15T05:48:54;125.57;;;26.17;;
67498;SDS011;54345;42.670;23.218;2022-11-15T05:51:20;199.27;;;29.47;;
67498;SDS011;54345;42.670;23.218;2022-11-15T05:53:47;158.17;;;26.47;;
67498;SDS011;54345;42.670;23.218;2022-11-15T05:56:14;118.43;;;27.47;;
67498;SDS011;54345;42.670;23.218;2022-11-15T05:58:40;101.00;;;24.03;;
67498;SDS011;54345;42.670;23.218;2022-11-15T06:01:06;110.67;;;27.17;;
67498;SDS011;54345;42.670;23.218;2022-11-15T06:03:32;150.30;;;28.57;;
67498;SDS011;54345;42.670;23.218;2022-11-15T06:05:58;186.17;;;29.60;;
67498;SDS011;54345;42.670;23.218;2022-11-15T06:08:23;196.03;;;29.33;;
67498;SDS011;54345;42.670;23.218;2022-11-15T06:10:49;120.60;;;25.90;;
67498;SDS011;54345;42.670;23.218;2022-11-15T06:13:14;104.47;;;26.37;;
67498;SDS011;54345;42.670;23.218;2022-11-15T06:15:40;109.30;;;25.30;;
67498;SDS011;54345;42.670;23.218;2022-11-15T06:18:05;90.80;;;25.47;;
67498;SDS011;54345;42.670;23.218;2022-11-15T06:20:33;92.00;;;24.27;;
67498;SDS011;54345;42.670;23.218;2022-11-15T06:23:00;129.83;;;25.57;;
67498;SDS011;54345;42.670;23.218;2022-11-15T06:25:27;113.23;;;25.93;;
67498;SDS011;54345;42.670;23.218;2022-11-15T06:27:54;105.47;;;25.90;;
67498;SDS011;54345;42.670;23.218;2022-11-15T06:30:21;80.23;;;22.50;;
67498;SDS011;54345;42.670;23.218;2022-11-15T06:32:47;57.87;;;22.50;;
67498;SDS011;54345;42.670;23.218;2022-11-15T06:35:13;52.80;;;22.50;;
67498;SDS011;54345;42.670;23.218;2022-11-15T06:37:40;98.80;;;24.43;;
67498;SDS011;54345;42.670;23.218;2022-11-15T06:40:07;135.20;;;29.40;;
67498;SDS011;54345;42.670;23.218;2022-11-15T06:42:33;116.43;;;26.30;;
67498;SDS011;54345;42.670;23.218;2022-11-15T06:44:59;127.77;;;29.03;;
67498;SDS011;54345;42.670;23.218;2022-11-15T06:47:24;241.63;;;34.73;;
67498;SDS011;54345;42.670;23.218;2022-11-15T06:49:50;186.63;;;30.33;;
67498;SDS011;54345;42.670;23.218;2022-11-15T06:52:16;141.07;;;30.47;;
67498;SDS011;54345;42.670;23.218;2022-11-15T06:54:43;82.20;;;25.77;;
67498;SDS011;54345;42.670;23.218;2022-11-15T06:57:09;132.37;;;29.63;;
67498;SDS011;54345;42.670;23.218;2022-11-15T06:59:35;68.70;;;25.30;;
67498;SDS011;54345;42.670;23.218;2022-11-15T07:02:01;257.50;;;36.70;;
67498;SDS011;54345;42.670;23.218;2022-11-15T07:04:27;235.77;;;40.77;;
67498;SDS011;54345;42.670;23.218;2022-11-15T07:06:52;223.17;;;32.97;;
67498;SDS011;54345;42.670;23.218;2022-11-15T07:09:18;275.10;;;38.20;;
67498;SDS011;54345;42.670;23.218;2022-11-15T07:11:43;105.10;;;27.03;;
67498;SDS011;54345;42.670;23.218;2022-11-15T07:14:09;84.47;;;26.77;;
67498;SDS011;54345;42.670;23.218;2022-11-15T07:16:35;375.07;;;42.20;;
67498;SDS011;54345;42.670;23.218;2022-11-15T07:19:02;165.23;;;34.17;;
67498;SDS011;54345;42.670;23.218;2022-11-15T07:21:27;235.80;;;38.87;;
67498;SDS011;54345;42.670;23.218;2022-11-15T07:23:53;181.90;;;35.37;;
67498;SDS011;54345;42.670;23.218;2022-11-15T07:26:18;131.37;;;33.83;;
67498;SDS011;54345;42.670;23.218;2022-11-15T07:28:44;157.23;;;34.73;;
67498;SDS011;54345;42.670;23.218;2022-11-15T07:31:10;178.60;;;38.30;;
67498;SDS011;54345;42.670;23.218;2022-11-15T07:33:35;141.13;;;36.07;;
67498;SDS011;54345;42.670;23.218;2022-11-15T07:36:02;151.73;;;36.10;;
67498;SDS011;54345;42.670;23.218;2022-11-15T07:38:30;138.13;;;37.20;;
67498;SDS011;54345;42.670;23.218;2022-11-15T07:40:56;105.43;;;35.57;;
67498;SDS011;54345;42.670;23.218;2022-11-15T07:43:23;93.10;;;34.50;;
67498;SDS011;54345;42.670;23.218;2022-11-15T07:45:49;352.47;;;47.67;;
67498;SDS011;54345;42.670;23.218;2022-11-15T07:48:15;165.97;;;36.40;;
67498;SDS011;54345;42.670;23.218;2022-11-15T07:50:41;140.27;;;36.23;;
67498;SDS011;54345;42.670;23.218;2022-11-15T07:53:07;134.87;;;36.93;;
67498;SDS011;54345;42.670;23.218;2022-11-15T07:55:34;126.97;;;36.47;;
67498;SDS011;54345;42.670;23.218;2022-11-15T07:58:00;189.60;;;39.67;;
67498;SDS011;54345;42.670;23.218;2022-11-15T08:00:29;131.60;;;33.97;;
67498;SDS011;54345;42.670;23.218;2022-11-15T08:03:09;96.97;;;32.47;;
67498;SDS011;54345;42.670;23.218;2022-11-15T08:05:37;93.73;;;29.90;;
67498;SDS011;54345;42.670;23.218;2022-11-15T08:08:03;127.90;;;34.93;;
67498;SDS011;54345;42.670;23.218;2022-11-15T08:10:30;148.83;;;34.37;;
67498;SDS011;54345;42.670;23.218;2022-11-15T08:12:59;198.97;;;37.20;;
67498;SDS011;54345;42.670;23.218;2022-11-15T08:15:36;85.60;;;28.43;;
67498;SDS011;54345;42.670;23.218;2022-11-15T08:18:03;129.30;;;31.97;;
67498;SDS011;54345;42.670;23.218;2022-11-15T08:20:33;58.13;;;24.77;;
67498;SDS011;54345;42.670;23.218;2022-11-15T08:23:00;132.20;;;29.47;;
67498;SDS011;54345;42.670;23.218;2022-11-15T08:25:27;128.80;;;31.47;;
67498;SDS011;54345;42.670;23.218;2022-11-15T08:27:59;79.87;;;26.47;;
67498;SDS011;54345;42.670;23.218;2022-11-15T08:30:26;130.43;;;32.83;;
67498;SDS011;54345;42.670;23.218;2022-11-15T08:32:52;147.97;;;31.73;;
67498;SDS011;54345;42.670;23.218;2022-11-15T08:35:21;82.27;;;30.53;;
67498;SDS011;54345;42.670;23.218;2022-11-15T08:37:46;549.20;;;66.50;;
67498;SDS011;54345;42.670;23.218;2022-11-15T08:40:12;240.97;;;51.60;;
67498;SDS011;54345;42.670;23.218;2022-11-15T08:42:39;427.60;;;58.43;;
67498;SDS011;54345;42.670;23.218;2022-11-15T08:45:05;487.97;;;78.87;;
67498;SDS011;54345;42.670;23.218;2022-11-15T08:47:32;242.37;;;52.83;;
67498;SDS011;54345;42.670;23.218;2022-11-15T08:49:57;314.63;;;58.67;;
67498;SDS011;54345;42.670;23.218;2022-11-15T08:52:23;440.87;;;75.57;;
67498;SDS011;54345;42.670;23.218;2022-11-15T08:54:49;470.97;;;69.13;;
67498;SDS011;54345;42.670;23.218;2022-11-15T08:57:14;440.60;;;66.10;;
67498;SDS011;54345;42.670;23.218;2022-11-15T08:59:40;184.97;;;54.17;;
67498;SDS011;54345;42.670;23.218;2022-11-15T09:02:06;608.30;;;88.17;;
67498;SDS011;54345;42.670;23.218;2022-11-15T09:04:31;550.43;;;86.80;;
67498;SDS011;54345;42.670;23.218;2022-11-15T09:06:58;456.03;;;73.23;;
67498;SDS011;54345;42.670;23.218;2022-11-15T09:09:23;500.30;;;83.87;;
67498;SDS011;54345;42.670;23.218;2022-11-15T09:11:49;572.90;;;87.00;;
67498;SDS011;54345;42.670;23.218;2022-11-15T09:14:15;529.50;;;78.20;;
67498;SDS011;54345;42.670;23.218;2022-11-15T09:16:41;382.37;;;88.17;;
67498;SDS011;54345;42.670;23.218;2022-11-15T09:19:07;481.13;;;84.50;;
67498;SDS011;54345;42.670;23.218;2022-11-15T09:21:32;231.33;;;65.27;;
67498;SDS011;54345;42.670;23.218;2022-11-15T09:23:58;267.67;;;61.63;;
67498;SDS011;54345;42.670;23.218;2022-11-15T09:26:24;355.17;;;73.67;;
67498;SDS011;54345;42.670;23.218;2022-11-15T09:28:50;183.37;;;56.73;;
67498;SDS011;54345;42.670;23.218;2022-11-15T09:31:16;177.30;;;57.83;;
67498;SDS011;54345;42.670;23.218;2022-11-15T09:33:44;292.63;;;63.63;;
67498;SDS011;54345;42.670;23.218;2022-11-15T09:36:10;285.93;;;65.27;;
67498;SDS011;54345;42.670;23.218;2022-11-15T09:38:37;169.67;;;58.43;;
67498;SDS011;54345;42.670;23.218;2022-11-15T09:49:30;396.27;;;73.93;;
67498;SDS011;54345;42.670;23.218;2022-11-15T09:51:56;380.37;;;78.70;;
67498;SDS011;54345;42.670;23.218;2022-11-15T09:54:30;202.33;;;65.43;;
67498;SDS011;54345;42.670;23.218;2022-11-15T10:04:45;254.13;;;63.10;;
67498;SDS011;54345;42.670;23.218;2022-11-15T10:07:14;245.53;;;63.77;;
67498;SDS011;54345;42.670;23.218;2022-11-15T10:12:27;175.03;;;63.27;;
67498;SDS011;54345;42.670;23.218;2022-11-15T10:15:08;165.27;;;58.83;;
67498;SDS011;54345;42.670;23.218;2022-11-15T10:20:48;162.43;;;59.50;;
67498;SDS011;54345;42.670;23.218;2022-11-15T10:23:18;139.20;;;54.47;;
67498;SDS011;54345;42.670;23.218;2022-11-15T10:25:46;136.70;;;53.63;;
67498;SDS011;54345;42.670;23.218;2022-11-15T10:28:16;134.23;;;49.00;;
67498;SDS011;54345;42.670;23.218;2022-11-15T10:30:56;136.60;;;54.30;;
67498;SDS011;54345;42.670;23.218;2022-11-15T10:33:29;163.10;;;64.43;;
67498;SDS011;54345;42.670;23.218;2022-11-15T10:41:18;159.70;;;59.60;;
67498;SDS011;54345;42.670;23.218;2022-11-15T10:43:45;150.73;;;62.47;;
67498;SDS011;54345;42.670;23.218;2022-11-15T10:46:26;183.37;;;74.30;;
67498;SDS011;54345;42.670;23.218;2022-11-15T10:48:51;200.47;;;81.50;;
67498;SDS011;54345;42.670;23.218;2022-11-15T10:51:27;261.87;;;102.67;;
67498;SDS011;54345;42.670;23.218;2022-11-15T10:53:54;155.27;;;61.67;;
67498;SDS011;54345;42.670;23.218;2022-11-15T10:56:22;243.03;;;111.50;;
67498;SDS011;54345;42.670;23.218;2022-11-15T10:58:52;178.77;;;70.27;;
67498;SDS011;54345;42.670;23.218;2022-11-15T11:01:24;176.53;;;78.97;;
67498;SDS011;54345;42.670;23.218;2022-11-15T11:06:31;170.17;;;71.97;;
67498;SDS011;54345;42.670;23.218;2022-11-15T11:09:23;181.47;;;88.37;;
67498;SDS011;54345;42.670;23.218;2022-11-15T11:12:01;186.70;;;79.60;;
67498;SDS011;54345;42.670;23.218;2022-11-15T11:14:28;149.23;;;68.20;;
67498;SDS011;54345;42.670;23.218;2022-11-15T11:20:04;132.77;;;57.27;;
67498;SDS011;54345;42.670;23.218;2022-11-15T11:30:57;142.50;;;58.37;;
67498;SDS011;54345;42.670;23.218;2022-11-15T11:33:33;113.47;;;55.63;;
67498;SDS011;54345;42.670;23.218;2022-11-15T11:49:19;129.17;;;54.97;;
67498;SDS011;54345;42.670;23.218;2022-11-15T11:51:56;120.20;;;52.23;;
67498;SDS011;54345;42.670;23.218;2022-11-15T11:54:58;125.90;;;53.50;;
67498;SDS011;54345;42.670;23.218;2022-11-15T12:00:34;119.20;;;51.90;;
67498;SDS011;54345;42.670;23.218;2022-11-15T12:05:57;133.67;;;51.87;;
67498;SDS011;54345;42.670;23.218;2022-11-15T12:08:33;135.83;;;55.27;;
67498;SDS011;54345;42.670;23.218;2022-11-15T12:11:16;164.43;;;61.97;;
67498;SDS011;54345;42.670;23.218;2022-11-15T12:13:48;158.57;;;59.43;;
67498;SDS011;54345;42.670;23.218;2022-11-15T12:16:28;133.37;;;67.97;;
67498;SDS011;54345;42.670;23.218;2022-11-15T12:18:56;149.87;;;66.87;;
67498;SDS011;54345;42.670;23.218;2022-11-15T12:21:37;126.27;;;62.03;;
67498;SDS011;54345;42.670;23.218;2022-11-15T12:26:52;149.43;;;65.57;;
67498;SDS011;54345;42.670;23.218;2022-11-15T12:29:41;176.93;;;59.23;;
67498;SDS011;54345;42.670;23.218;2022-11-15T12:32:30;148.87;;;56.60;;
67498;SDS011;54345;42.670;23.218;2022-11-15T12:34:59;151.30;;;62.70;;
67498;SDS011;54345;42.670;23.218;2022-11-15T12:37:33;125.33;;;53.87;;
67498;SDS011;54345;42.670;23.218;2022-11-15T12:43:00;119.73;;;53.63;;
67498;SDS011;54345;42.670;23.218;2022-11-15T12:45:36;141.80;;;60.87;;
67498;SDS011;54345;42.670;23.218;2022-11-15T12:48:50;222.40;;;77.20;;
67498;SDS011;54345;42.670;23.218;2022-11-15T12:51:09;179.70;;;72.10;;
67498;SDS011;54345;42.670;23.218;2022-11-15T12:53:35;145.70;;;56.70;;
67498;SDS011;54345;42.670;23.218;2022-11-15T12:58:41;127.00;;;67.40;;
67498;SDS011;54345;42.670;23.218;2022-11-15T13:06:54;142.83;;;64.60;;
67498;SDS011;54345;42.670;23.218;2022-11-15T13:11:54;143.57;;;61.87;;
67498;SDS011;54345;42.670;23.218;2022-11-15T13:17:02;127.83;;;57.07;;
67498;SDS011;54345;42.670;23.218;2022-11-15T13:19:37;140.40;;;60.73;;
67498;SDS011;54345;42.670;23.218;2022-11-15T13:22:09;150.07;;;62.17;;
67498;SDS011;54345;42.670;23.218;2022-11-15T13:24:54;165.50;;;75.40;;
67498;SDS011;54345;42.670;23.218;2022-11-15T13:27:20;163.93;;;78.07;;
67498;SDS011;54345;42.670;23.218;2022-11-15T13:29:46;136.77;;;62.40;;
67498;SDS011;54345;42.670;23.218;2022-11-15T13:32:15;148.80;;;67.87;;
67498;SDS011;54345;42.670;23.218;2022-11-15T13:34:47;133.80;;;62.03;;
67498;SDS011;54345;42.670;23.218;2022-11-15T13:39:46;126.43;;;59.93;;
67498;SDS011;54345;42.670;23.218;2022-11-15T13:42:17;150.93;;;62.73;;
67498;SDS011;54345;42.670;23.218;2022-11-15T13:44:58;149.67;;;62.20;;
67498;SDS011;54345;42.670;23.218;2022-11-15T13:47:26;139.60;;;62.63;;
67498;SDS011;54345;42.670;23.218;2022-11-15T13:49:52;145.60;;;60.07;;
67498;SDS011;54345;42.670;23.218;2022-11-15T13:52:18;119.17;;;58.20;;
67498;SDS011;54345;42.670;23.218;2022-11-15T13:57:40;154.90;;;71.70;;
67498;SDS011;54345;42.670;23.218;2022-11-15T14:00:57;141.93;;;57.83;;
67498;SDS011;54345;42.670;23.218;2022-11-15T14:03:08;147.70;;;69.03;;
67498;SDS011;54345;42.670;23.218;2022-11-15T14:08:57;168.43;;;68.97;;
67498;SDS011;54345;42.670;23.218;2022-11-15T14:11:28;139.23;;;69.43;;
67498;SDS011;54345;42.670;23.218;2022-11-15T14:14:13;143.90;;;72.70;;
67498;SDS011;54345;42.670;23.218;2022-11-15T14:16:44;138.10;;;68.90;;
67498;SDS011;54345;42.670;23.218;2022-11-15T14:19:12;168.43;;;90.30;;
67498;SDS011;54345;42.670;23.218;2022-11-15T14:22:09;171.37;;;97.80;;
67498;SDS011;54345;42.670;23.218;2022-11-15T14:24:47;174.53;;;79.07;;
67498;SDS011;54345;42.670;23.218;2022-11-15T14:27:33;143.63;;;60.30;;
67498;SDS011;54345;42.670;23.218;2022-11-15T14:29:59;299.23;;;114.83;;
67498;SDS011;54345;42.670;23.218;2022-11-15T14:32:28;111.87;;;58.93;;
67498;SDS011;54345;42.670;23.218;2022-11-15T14:34:56;132.83;;;60.93;;
67498;SDS011;54345;42.670;23.218;2022-11-15T14:37:27;122.77;;;60.97;;
67498;SDS011;54345;42.670;23.218;2022-11-15T14:39:56;135.37;;;58.87;;
67498;SDS011;54345;42.670;23.218;2022-11-15T14:42:22;143.50;;;61.60;;
67498;SDS011;54345;42.670;23.218;2022-11-15T14:44:48;135.77;;;60.33;;
67498;SDS011;54345;42.670;23.218;2022-11-15T14:47:14;129.03;;;59.20;;
67498;SDS011;54345;42.670;23.218;2022-11-15T14:49:40;119.70;;;56.93;;
67498;SDS011;54345;42.670;23.218;2022-11-15T14:52:25;224.10;;;102.50;;
67498;SDS011;54345;42.670;23.218;2022-11-15T14:54:53;145.60;;;65.20;;
67498;SDS011;54345;42.670;23.218;2022-11-15T14:57:20;141.60;;;59.63;;
67498;SDS011;54345;42.670;23.218;2022-11-15T14:59:45;166.50;;;69.53;;
67498;SDS011;54345;42.670;23.218;2022-11-15T15:02:16;158.93;;;74.70;;
67498;SDS011;54345;42.670;23.218;2022-11-15T15:04:45;179.17;;;82.40;;
67498;SDS011;54345;42.670;23.218;2022-11-15T15:07:11;398.70;;;149.03;;
67498;SDS011;54345;42.670;23.218;2022-11-15T15:09:37;271.50;;;109.53;;
67498;SDS011;54345;42.670;23.218;2022-11-15T15:12:03;244.23;;;139.00;;
67498;SDS011;54345;42.670;23.218;2022-11-15T15:14:29;162.00;;;79.93;;
67498;SDS011;54345;42.670;23.218;2022-11-15T15:16:54;161.27;;;79.10;;
67498;SDS011;54345;42.670;23.218;2022-11-15T15:19:20;145.13;;;86.13;;
67498;SDS011;54345;42.670;23.218;2022-11-15T15:21:45;240.13;;;119.20;;
67498;SDS011;54345;42.670;23.218;2022-11-15T15:24:13;268.70;;;129.87;;
67498;SDS011;54345;42.670;23.218;2022-11-15T15:26:40;177.20;;;80.77;;
67498;SDS011;54345;42.670;23.218;2022-11-15T15:29:08;224.57;;;128.37;;
67498;SDS011;54345;42.670;23.218;2022-11-15T15:31:34;302.63;;;149.27;;
67498;SDS011;54345;42.670;23.218;2022-11-15T15:34:00;210.67;;;103.33;;
67498;SDS011;54345;42.670;23.218;2022-11-15T15:36:25;130.87;;;55.03;;
67498;SDS011;54345;42.670;23.218;2022-11-15T15:38:51;103.47;;;45.43;;
67498;SDS011;54345;42.670;23.218;2022-11-15T15:41:17;99.83;;;43.30;;
67498;SDS011;54345;42.670;23.218;2022-11-15T15:43:43;106.23;;;37.10;;
67498;SDS011;54345;42.670;23.218;2022-11-15T15:46:10;92.43;;;36.93;;
67498;SDS011;54345;42.670;23.218;2022-11-15T15:48:37;84.33;;;39.57;;
67498;SDS011;54345;42.670;23.218;2022-11-15T15:51:04;105.10;;;47.57;;
67498;SDS011;54345;42.670;23.218;2022-11-15T15:53:30;92.13;;;40.77;;
67498;SDS011;54345;42.670;23.218;2022-11-15T15:55:56;83.53;;;29.27;;
67498;SDS011;54345;42.670;23.218;2022-11-15T15:58:22;165.90;;;92.07;;
67498;SDS011;54345;42.670;23.218;2022-11-15T16:00:48;97.50;;;37.83;;
67498;SDS011;54345;42.670;23.218;2022-11-15T16:03:13;143.37;;;59.50;;
67498;SDS011;54345;42.670;23.218;2022-11-15T16:05:39;260.07;;;103.17;;
67498;SDS011;54345;42.670;23.218;2022-11-15T16:08:04;150.13;;;56.23;;
67498;SDS011;54345;42.670;23.218;2022-11-15T16:10:33;90.20;;;29.60;;
67498;SDS011;54345;42.670;23.218;2022-11-15T16:12:59;70.00;;;30.17;;